Time;durP1;ratioP1;P1;durP2;ratioP2;P2;SDS_P1;SDS_P2;PMS_P1;PMS_P2;Temp;Humidity;BMP_temperature;BMP_pressure;BME280_temperature;BME280_humidity;BME280_pressure;Samples;Min_cycle;Max_cycle;Signal;HPM_P1;HPM_P2
2023/02/13 00:02:13;;;;;;;8.95;5.68;;;4.30;99.90;;;;;;5070762;28;20106;-66
2023/02/13 00:04:43;;;;;;;9.48;5.82;;;4.10;99.90;;;;;;5066889;28;20503;-67
2023/02/13 00:07:11;;;;;;;12.23;7.03;;;4.10;99.90;;;;;;5056474;28;20041;-66
2023/02/13 00:09:39;;;;;;;13.25;8.20;;;4.00;99.90;;;;;;5082663;28;20424;-66
2023/02/13 00:12:08;;;;;;;13.60;8.05;;;4.00;99.90;;;;;;5066355;28;20055;-67
2023/02/13 00:14:37;;;;;;;15.60;9.27;;;3.90;99.90;;;;;;5074648;28;20439;-67
2023/02/13 00:17:05;;;;;;;15.23;8.98;;;3.80;99.90;;;;;;5074572;28;20078;-66
2023/02/13 00:19:33;;;;;;;16.88;9.75;;;3.70;99.90;;;;;;5074563;28;20055;-66
2023/02/13 00:22:00;;;;;;;14.95;9.52;;;3.70;99.90;;;;;;5074678;28;20411;-66
2023/02/13 00:24:27;;;;;;;16.27;10.25;;;3.60;99.90;;;;;;5073634;28;20522;-66
2023/02/13 00:26:55;;;;;;;17.02;10.38;;;3.60;99.90;;;;;;5060849;28;20500;-67
2023/02/13 00:29:22;;;;;;;15.35;9.85;;;3.60;99.90;;;;;;5064356;28;20036;-67
2023/02/13 00:31:51;;;;;;;20.60;11.73;;;3.50;99.90;;;;;;5057443;28;20041;-66
2023/02/13 00:34:18;;;;;;;16.92;10.70;;;3.40;99.90;;;;;;5064014;28;20037;-67
2023/02/13 00:36:45;;;;;;;19.23;11.35;;;3.40;99.90;;;;;;5071778;28;20056;-68
2023/02/13 00:39:12;;;;;;;15.98;10.93;;;3.30;99.90;;;;;;5064495;28;20056;-68
2023/02/13 00:41:40;;;;;;;20.10;12.13;;;3.30;99.90;;;;;;5062501;28;20044;-67
2023/02/13 00:44:09;;;;;;;19.15;12.00;;;3.20;99.90;;;;;;5060313;28;20115;-67
2023/02/13 00:46:37;;;;;;;23.30;13.00;;;3.20;99.90;;;;;;5057605;28;20051;-66
2023/02/13 00:49:05;;;;;;;23.05;12.98;;;3.20;99.90;;;;;;5059390;28;20048;-68
2023/02/13 00:51:33;;;;;;;20.00;12.90;;;3.20;99.90;;;;;;5068496;28;20555;-68
2023/02/13 00:54:01;;;;;;;23.33;14.70;;;3.10;99.90;;;;;;5072938;28;20397;-66
2023/02/13 00:56:28;;;;;;;28.35;16.92;;;3.10;99.90;;;;;;5073628;28;20037;-67
2023/02/13 00:58:55;;;;;;;26.33;17.45;;;3.10;99.90;;;;;;5058901;28;20041;-67
2023/02/13 01:01:24;;;;;;;26.35;16.77;;;3.10;99.90;;;;;;5068631;28;20517;-67
2023/02/13 01:03:51;;;;;;;26.83;15.93;;;3.00;99.90;;;;;;5073706;28;20094;-67
2023/02/13 01:06:20;;;;;;;25.45;15.18;;;2.90;99.90;;;;;;5073412;28;20455;-67
2023/02/13 01:08:47;;;;;;;26.25;15.27;;;2.90;99.90;;;;;;5073713;28;20059;-67
2023/02/13 01:11:15;;;;;;;23.75;14.20;;;2.80;99.90;;;;;;5088853;28;20036;-67
2023/02/13 01:13:43;;;;;;;25.63;14.45;;;2.70;99.90;;;;;;5073458;28;20072;-67
2023/02/13 01:16:10;;;;;;;26.10;15.02;;;2.70;99.90;;;;;;5059568;28;20510;-67
2023/02/13 01:18:38;;;;;;;25.67;15.60;;;2.70;99.90;;;;;;5066091;28;20408;-66
2023/02/13 01:21:07;;;;;;;23.88;13.68;;;2.60;99.90;;;;;;5073145;28;20478;-67
2023/02/13 01:23:36;;;;;;;29.65;16.30;;;2.60;99.90;;;;;;5067599;28;20044;-67
2023/02/13 01:26:05;;;;;;;28.98;16.20;;;2.60;99.90;;;;;;5073195;28;20041;-66
2023/02/13 01:28:33;;;;;;;30.10;16.95;;;2.50;99.90;;;;;;5088667;28;20072;-67
2023/02/13 01:31:01;;;;;;;26.38;16.35;;;2.40;99.90;;;;;;5088888;28;20098;-67
2023/02/13 01:33:29;;;;;;;26.90;16.02;;;2.40;99.90;;;;;;5088293;28;20067;-66
2023/02/13 01:35:56;;;;;;;29.52;16.30;;;2.30;99.90;;;;;;5061567;28;20056;-66
2023/02/13 01:38:24;;;;;;;32.63;17.52;;;2.20;99.90;;;;;;5063005;28;20041;-67
2023/02/13 01:40:53;;;;;;;30.77;17.38;;;2.20;99.90;;;;;;5071852;28;20032;-67
2023/02/13 01:43:22;;;;;;;30.85;16.90;;;2.20;99.90;;;;;;5059291;28;20076;-67
2023/02/13 01:45:54;;;;;;;32.60;17.27;;;2.10;99.90;;;;;;5080181;28;20399;-67
2023/02/13 01:48:26;;;;;;;28.38;16.15;;;2.00;99.90;;;;;;5055557;28;20096;-67
2023/02/13 01:51:05;;;;;;;29.60;16.00;;;2.00;99.90;;;;;;5088392;28;20056;-67
2023/02/13 01:53:44;;;;;;;27.35;15.48;;;1.90;99.90;;;;;;5054099;28;20124;-67
2023/02/13 01:56:25;;;;;;;29.50;16.33;;;1.90;99.90;;;;;;5046260;28;20049;-67
2023/02/13 01:58:55;;;;;;;;;;;1.90;99.90;;;;;;5038243;28;20487;-67
2023/02/13 02:01:24;;;;;;;29.25;16.85;;;1.90;99.90;;;;;;5034330;28;19920;-67
2023/02/13 02:04:06;;;;;;;28.88;15.73;;;1.90;99.90;;;;;;5049428;28;20498;-67
2023/02/13 02:06:39;;;;;;;29.17;16.75;;;1.80;99.90;;;;;;5033699;28;20041;-66
2023/02/13 02:09:17;;;;;;;30.25;17.05;;;1.90;99.90;;;;;;5049325;28;20033;-66
2023/02/13 02:12:07;;;;;;;31.13;16.00;;;1.90;99.90;;;;;;5036137;28;20044;-67
2023/02/13 02:14:39;;;;;;;27.48;14.35;;;1.90;99.90;;;;;;5029522;28;20115;-67
2023/02/13 02:17:08;;;;;;;;;;;1.80;99.90;;;;;;5048030;28;20047;-67
2023/02/13 02:20:11;;;;;;;25.77;14.40;;;1.80;99.90;;;;;;5051530;28;19920;-67
2023/02/13 02:22:44;;;;;;;24.00;13.05;;;1.90;99.90;;;;;;5032569;28;20107;-68
2023/02/13 02:25:37;;;;;;;25.95;14.57;;;1.80;99.90;;;;;;5032321;28;20053;-66
2023/02/13 02:28:25;;;;;;;25.02;13.77;;;1.80;99.90;;;;;;5024520;28;20063;-66
2023/02/13 02:31:23;;;;;;;25.42;13.60;;;1.80;99.90;;;;;;4993900;28;20528;-67
2023/02/13 02:33:52;;;;;;;22.55;12.85;;;1.70;99.90;;;;;;5002199;28;20083;-66
2023/02/13 02:36:38;;;;;;;21.13;11.63;;;1.70;99.90;;;;;;5028436;28;20057;-67
2023/02/13 02:39:48;;;;;;;23.15;12.27;;;1.70;99.90;;;;;;5031043;28;20076;-66
2023/02/13 02:42:50;;;;;;;21.30;11.70;;;1.70;99.90;;;;;;5008079;28;20042;-67
2023/02/13 02:45:50;;;;;;;23.40;12.77;;;1.70;99.90;;;;;;5024243;28;20164;-66
2023/02/13 02:51:37;;;;;;;24.00;12.43;;;1.60;99.90;;;;;;5020957;28;20033;-67
2023/02/13 02:57:11;;;;;;;22.48;12.02;;;1.50;99.90;;;;;;5039343;28;20426;-67
2023/02/13 03:14:02;;;;;;;23.98;11.15;;;1.40;99.90;;;;;;5030253;28;20045;-67
2023/02/13 03:22:44;;;;;;;18.25;10.82;;;1.30;99.90;;;;;;5038524;28;20060;-67
2023/02/13 03:25:29;;;;;;;20.00;11.48;;;1.20;99.90;;;;;;5028892;28;20045;-67
2023/02/13 03:31:21;;;;;;;23.58;12.82;;;1.20;99.90;;;;;;5021338;28;20057;-66
2023/02/13 03:33:48;;;;;;;22.10;11.80;;;1.10;99.90;;;;;;5030020;28;20411;-67
2023/02/13 03:39:29;;;;;;;21.77;11.43;;;1.10;99.90;;;;;;5029784;28;20046;-67
2023/02/13 03:42:14;;;;;;;21.30;10.90;;;1.00;99.90;;;;;;5030644;28;20472;-67
2023/02/13 03:45:51;;;;;;;17.63;11.32;;;1.00;99.90;;;;;;5030170;28;20563;-66
2023/02/13 03:47:38;;;;;;;19.08;11.13;;;0.90;99.90;;;;;;5042437;28;20543;-67
2023/02/13 03:50:11;;;;;;;25.67;13.48;;;0.90;99.90;;;;;;5061172;28;20495;-67
2023/02/13 03:53:00;;;;;;;21.60;12.18;;;0.90;99.90;;;;;;5029601;28;20527;-67
2023/02/13 04:01:29;;;;;;;41.92;23.10;;;0.70;99.90;;;;;;5049613;28;20037;-66
2023/02/13 04:04:16;;;;;;;44.75;24.40;;;0.60;99.90;;;;;;5047633;28;20583;-67
2023/02/13 04:06:58;;;;;;;46.20;24.45;;;0.50;99.90;;;;;;5045565;28;20034;-67
2023/02/13 04:09:28;;;;;;;46.75;25.08;;;0.50;99.90;;;;;;5029038;28;20044;-66
2023/02/13 04:12:08;;;;;;;46.63;24.60;;;0.40;99.90;;;;;;5030568;28;20049;-66
2023/02/13 04:14:42;;;;;;;46.90;25.98;;;0.40;99.90;;;;;;5040415;28;20045;-66
2023/02/13 04:17:22;;;;;;;46.97;27.35;;;0.30;99.90;;;;;;5057737;28;20419;-66
2023/02/13 04:19:50;;;;;;;51.90;25.42;;;0.30;99.90;;;;;;5069642;28;20177;-66
2023/02/13 04:22:17;;;;;;;47.88;25.75;;;0.20;99.90;;;;;;5019611;28;20052;-67
2023/02/13 04:24:45;;;;;;;49.40;26.73;;;0.10;99.90;;;;;;5030344;28;20057;-66
2023/02/13 04:27:14;;;;;;;47.15;25.85;;;0.10;99.90;;;;;;5028771;28;20929;-67
2023/02/13 04:29:41;;;;;;;48.70;26.63;;;0.00;99.90;;;;;;5037513;28;20052;-66
2023/02/13 04:32:10;;;;;;;42.38;23.15;;;0.00;99.90;;;;;;5049588;28;20044;-67
2023/02/13 04:34:38;;;;;;;44.78;23.25;;;0.00;99.90;;;;;;5045549;28;20046;-66
2023/02/13 04:37:05;;;;;;;27.25;14.38;;;0.00;99.90;;;;;;5030042;28;20045;-67
2023/02/13 04:39:32;;;;;;;20.65;11.80;;;0.00;99.90;;;;;;5028945;28;20045;-66
2023/02/13 04:41:59;;;;;;;22.25;11.23;;;0.00;99.90;;;;;;5029799;28;20060;-67
2023/02/13 04:44:27;;;;;;;20.67;11.70;;;0.00;99.90;;;;;;5029992;28;20050;-67
2023/02/13 04:46:54;;;;;;;17.38;10.55;;;0.10;99.90;;;;;;5046863;28;20052;-67
2023/02/13 04:49:21;;;;;;;17.48;9.68;;;0.20;99.90;;;;;;5045690;28;20041;-67
2023/02/13 04:51:48;;;;;;;21.35;10.00;;;0.20;99.90;;;;;;5052688;28;20052;-68
2023/02/13 04:54:16;;;;;;;16.52;9.95;;;0.30;99.90;;;;;;5053103;28;20044;-67
2023/02/13 04:56:43;;;;;;;16.73;9.93;;;0.30;99.90;;;;;;5054292;28;20488;-66
2023/02/13 04:59:10;;;;;;;18.70;9.75;;;0.30;99.90;;;;;;5062736;28;20051;-67
2023/02/13 05:01:37;;;;;;;22.55;10.55;;;0.30;99.90;;;;;;5052810;28;20045;-67
2023/02/13 05:04:05;;;;;;;35.95;9.48;;;0.30;99.90;;;;;;5038365;28;20049;-66
2023/02/13 05:06:32;;;;;;;27.55;9.25;;;0.30;99.90;;;;;;5032796;28;20039;-66
2023/02/13 05:08:59;;;;;;;24.75;9.65;;;0.20;99.90;;;;;;5032755;28;20522;-67
2023/02/13 05:11:26;;;;;;;19.52;10.30;;;0.30;99.90;;;;;;5033242;28;20048;-67
2023/02/13 05:13:54;;;;;;;21.30;10.05;;;0.30;99.90;;;;;;5032924;28;20041;-67
2023/02/13 05:16:21;;;;;;;33.65;10.40;;;0.30;99.90;;;;;;5049647;28;20570;-67
2023/02/13 05:18:49;;;;;;;17.90;9.35;;;0.30;99.90;;;;;;5030506;28;20080;-67
2023/02/13 05:24:02;;;;;;;20.45;10.30;;;0.30;99.90;;;;;;5033028;28;20099;-67
2023/02/13 05:26:29;;;;;;;20.77;11.30;;;0.40;99.90;;;;;;5034433;28;20049;-67
2023/02/13 05:31:42;;;;;;;21.83;10.50;;;0.40;99.90;;;;;;5037217;28;20045;-67
2023/02/13 05:34:10;;;;;;;19.55;10.52;;;0.40;99.90;;;;;;5033065;28;20052;-67
2023/02/13 05:36:37;;;;;;;42.20;10.48;;;0.30;99.90;;;;;;5048087;28;20390;-67
2023/02/13 05:39:05;;;;;;;21.92;10.57;;;0.40;99.90;;;;;;5072038;28;20049;-67
2023/02/13 05:41:32;;;;;;;30.77;10.50;;;0.30;99.90;;;;;;5033256;28;20525;-67
2023/02/13 05:43:59;;;;;;;19.60;10.70;;;0.30;99.90;;;;;;5030855;28;20440;-67
2023/02/13 05:46:26;;;;;;;28.02;10.98;;;0.30;99.90;;;;;;5049784;28;20499;-67
2023/02/13 05:48:54;;;;;;;20.42;10.65;;;0.40;99.90;;;;;;5051989;28;20045;-67
2023/02/13 05:51:21;;;;;;;21.00;10.63;;;0.40;99.90;;;;;;5049869;28;20059;-67
2023/02/13 05:53:49;;;;;;;24.08;10.70;;;0.50;99.90;;;;;;5041459;28;20041;-67
2023/02/13 05:56:16;;;;;;;21.33;11.63;;;0.50;99.90;;;;;;5031327;28;20056;-66
2023/02/13 05:58:44;;;;;;;38.50;11.77;;;0.50;99.90;;;;;;5053575;28;20048;-69
2023/02/13 06:01:11;;;;;;;20.10;10.40;;;0.60;99.90;;;;;;5061780;28;20068;-67
2023/02/13 06:03:39;;;;;;;19.20;10.77;;;0.60;99.90;;;;;;5055290;28;20459;-68
2023/02/13 06:06:06;;;;;;;25.88;12.73;;;0.60;99.90;;;;;;5087992;28;20045;-67
2023/02/13 06:08:34;;;;;;;27.50;13.77;;;0.60;99.90;;;;;;5072376;28;20052;-67
2023/02/13 06:11:03;;;;;;;25.13;13.55;;;0.70;99.90;;;;;;5072730;28;20094;-67
2023/02/13 06:13:30;;;;;;;26.85;13.05;;;0.70;99.90;;;;;;5072168;28;20041;-67
2023/02/13 06:15:58;;;;;;;23.33;12.70;;;0.70;99.90;;;;;;5072549;28;20449;-67
2023/02/13 06:18:25;;;;;;;23.30;12.30;;;0.70;99.90;;;;;;5071972;28;20074;-67
2023/02/13 06:20:52;;;;;;;24.73;13.55;;;0.80;99.90;;;;;;5071103;28;20486;-67
2023/02/13 06:23:20;;;;;;;22.83;12.32;;;0.80;99.90;;;;;;5072217;28;20056;-68
2023/02/13 06:25:47;;;;;;;23.67;12.20;;;0.90;99.90;;;;;;5066997;28;20384;-67
2023/02/13 06:28:14;;;;;;;27.73;13.05;;;0.90;99.90;;;;;;5066495;28;20048;-67
2023/02/13 06:30:41;;;;;;;25.35;14.10;;;0.90;99.90;;;;;;5072230;28;20048;-67
2023/02/13 06:33:09;;;;;;;24.30;12.77;;;0.90;99.90;;;;;;5071808;28;20040;-67
2023/02/13 06:35:36;;;;;;;23.63;13.50;;;0.90;99.90;;;;;;5072310;28;20055;-67
2023/02/13 06:38:03;;;;;;;22.60;12.73;;;0.90;99.90;;;;;;5077703;28;20055;-66
2023/02/13 06:40:31;;;;;;;23.20;12.32;;;0.80;99.90;;;;;;5044480;28;20045;-66
2023/02/13 06:42:58;;;;;;;22.67;12.60;;;0.80;99.90;;;;;;5050480;28;20053;-66
2023/02/13 06:45:25;;;;;;;20.20;11.50;;;0.90;99.90;;;;;;5054560;28;20186;-66
2023/02/13 06:47:53;;;;;;;29.13;15.85;;;0.80;99.90;;;;;;5069506;28;20491;-66
2023/02/13 06:50:20;;;;;;;29.58;15.98;;;0.80;99.90;;;;;;5052156;28;20143;-67
2023/02/13 06:52:49;;;;;;;30.80;16.08;;;0.90;99.90;;;;;;5050831;28;20041;-67
2023/02/13 06:55:17;;;;;;;28.77;15.27;;;0.90;99.90;;;;;;5060464;28;20072;-67
2023/02/13 06:57:45;;;;;;;29.70;16.35;;;0.90;99.90;;;;;;5050318;28;20049;-67
2023/02/13 07:00:14;;;;;;;31.73;17.00;;;0.90;99.90;;;;;;5040666;28;20391;-68
2023/02/13 07:02:43;;;;;;;30.73;16.10;;;0.90;99.90;;;;;;5056387;28;20090;-68
2023/02/13 07:05:10;;;;;;;27.10;14.77;;;1.00;99.90;;;;;;5070378;28;20044;-67
2023/02/13 07:07:40;;;;;;;21.90;12.93;;;1.00;99.90;;;;;;5066872;28;20037;-67
2023/02/13 07:10:10;;;;;;;23.92;13.15;;;1.00;99.90;;;;;;5054675;28;20041;-67
2023/02/13 07:12:38;;;;;;;23.58;12.25;;;1.10;99.90;;;;;;5040952;28;20053;-70
2023/02/13 07:15:06;;;;;;;20.77;11.60;;;1.10;99.90;;;;;;5043906;28;20104;-70
2023/02/13 07:17:34;;;;;;;22.10;13.18;;;1.20;99.90;;;;;;5054307;28;20437;-69
2023/02/13 07:20:03;;;;;;;23.30;13.15;;;1.30;99.90;;;;;;5053703;28;20493;-70
2023/02/13 07:22:39;;;;;;;20.60;11.60;;;1.30;99.90;;;;;;5057130;28;20052;-70
2023/02/13 07:25:07;;;;;;;34.03;12.27;;;1.40;99.90;;;;;;5083038;28;20041;-72
2023/02/13 07:27:34;;;;;;;24.27;12.00;;;1.50;99.90;;;;;;5062247;28;20045;-69
2023/02/13 07:30:01;;;;;;;23.88;12.77;;;1.50;99.90;;;;;;5065321;28;20498;-69
2023/02/13 07:32:29;;;;;;;23.00;11.90;;;1.60;99.90;;;;;;5062618;28;20410;-69
2023/02/13 07:34:56;;;;;;;19.98;11.55;;;1.60;99.90;;;;;;5062557;28;20040;-69
2023/02/13 07:37:30;;;;;;;19.60;10.68;;;1.70;99.90;;;;;;5061488;28;20562;-69
2023/02/13 07:39:57;;;;;;;22.38;11.43;;;1.70;99.90;;;;;;5044866;28;20105;-69
2023/02/13 07:42:24;;;;;;;24.13;12.38;;;1.80;99.90;;;;;;5046909;28;20040;-68
2023/02/13 07:44:52;;;;;;;34.03;17.98;;;1.90;99.90;;;;;;5061501;28;20049;-68
2023/02/13 07:47:19;;;;;;;33.45;17.65;;;2.00;99.90;;;;;;5062149;28;20415;-68
2023/02/13 07:49:46;;;;;;;29.35;16.25;;;2.10;99.90;;;;;;5059543;28;20091;-69
2023/02/13 07:52:13;;;;;;;28.88;14.45;;;2.10;99.90;;;;;;5034187;28;20053;-68
2023/02/13 07:54:46;;;;;;;25.83;12.13;;;2.20;99.90;;;;;;5034521;28;20496;-69
2023/02/13 07:57:15;;;;;;;23.75;12.85;;;2.10;99.90;;;;;;5050000;28;20087;-69
2023/02/13 07:59:42;;;;;;;23.77;12.68;;;2.10;99.90;;;;;;5064204;28;20071;-68
2023/02/13 08:02:13;;;;;;;22.92;12.43;;;2.20;99.90;;;;;;5046180;28;20400;-69
2023/02/13 08:04:44;;;;;;;26.40;13.13;;;2.10;99.90;;;;;;5029758;28;20050;-70
2023/02/13 08:07:16;;;;;;;27.13;14.88;;;2.20;99.90;;;;;;5033882;28;20103;-70
2023/02/13 08:12:33;;;;;;;27.92;14.55;;;2.30;99.90;;;;;;5050174;28;20517;-68
2023/02/13 08:15:01;;;;;;;33.28;15.00;;;2.30;99.90;;;;;;5049826;28;20588;-68
2023/02/13 08:17:28;;;;;;;26.25;14.98;;;2.50;99.90;;;;;;5048647;28;20045;-71
2023/02/13 08:19:55;;;;;;;33.88;16.75;;;2.50;99.90;;;;;;5048829;28;20053;-69
2023/02/13 08:22:22;;;;;;;36.05;18.38;;;2.50;99.90;;;;;;5044714;28;20042;-68
2023/02/13 08:24:50;;;;;;;36.00;18.02;;;2.60;99.90;;;;;;5043460;28;20069;-70
2023/02/13 08:27:17;;;;;;;32.83;18.08;;;2.80;99.90;;;;;;5052938;28;20120;-67
2023/02/13 08:29:44;;;;;;;37.47;19.80;;;2.90;99.90;;;;;;5054135;28;20158;-68
2023/02/13 08:32:12;;;;;;;38.17;20.67;;;3.00;99.90;;;;;;5054017;28;20361;-70
2023/02/13 08:34:39;;;;;;;33.25;19.27;;;3.00;99.90;;;;;;5053908;28;20051;-68
2023/02/13 08:37:06;;;;;;;35.88;19.55;;;3.00;99.90;;;;;;5043122;28;20033;-68
2023/02/13 08:39:34;;;;;;;39.13;20.92;;;3.20;99.90;;;;;;5052612;28;20037;-69
2023/02/13 08:42:01;;;;;;;35.53;20.92;;;3.10;99.90;;;;;;5051376;28;20104;-70
2023/02/13 08:44:28;;;;;;;36.63;19.67;;;3.00;99.90;;;;;;5050718;28;20514;-68
2023/02/13 08:46:56;;;;;;;34.40;18.20;;;3.00;99.90;;;;;;5038627;28;20064;-68
2023/02/13 08:49:23;;;;;;;36.25;18.63;;;3.10;99.90;;;;;;5050013;28;20363;-68
2023/02/13 08:51:50;;;;;;;33.97;18.00;;;3.10;99.90;;;;;;5032393;28;20037;-67
2023/02/13 08:54:18;;;;;;;32.80;17.65;;;3.30;99.90;;;;;;5036820;28;20500;-69
2023/02/13 08:56:45;;;;;;;30.30;16.33;;;3.40;99.90;;;;;;5051543;28;20178;-68
2023/02/13 08:59:12;;;;;;;35.38;16.70;;;3.40;99.90;;;;;;5066516;28;20044;-68
2023/02/13 09:01:40;;;;;;;33.00;17.85;;;3.40;99.90;;;;;;5052280;28;20075;-68
2023/02/13 09:04:08;;;;;;;33.65;17.52;;;3.50;99.90;;;;;;5052807;28;20045;-69
2023/02/13 09:06:36;;;;;;;32.85;18.13;;;3.60;99.90;;;;;;5040110;28;20042;-71
2023/02/13 09:09:06;;;;;;;36.13;19.35;;;3.70;99.90;;;;;;5052367;28;20061;-69
2023/02/13 09:11:33;;;;;;;34.75;18.50;;;3.70;99.90;;;;;;5050687;28;20083;-69
2023/02/13 09:14:00;;;;;;;30.88;18.13;;;3.70;99.90;;;;;;5053687;28;20037;-68
2023/02/13 09:16:28;;;;;;;36.35;18.13;;;3.90;99.90;;;;;;5067465;28;20466;-71
2023/02/13 09:18:55;;;;;;;35.67;19.65;;;4.20;99.90;;;;;;5036627;28;20045;-69
2023/02/13 09:21:22;;;;;;;34.13;19.58;;;4.30;99.90;;;;;;5033055;28;20460;-69
2023/02/13 09:23:50;;;;;;;37.80;20.85;;;4.30;99.90;;;;;;5031990;28;20045;-70
2023/02/13 09:26:18;;;;;;;42.25;21.63;;;4.40;99.90;;;;;;5031222;28;20506;-69
2023/02/13 09:28:46;;;;;;;41.15;21.35;;;4.10;99.90;;;;;;5040113;28;20033;-70
2023/02/13 09:31:19;;;;;;;41.30;22.52;;;4.20;99.90;;;;;;5073571;28;20048;-70
2023/02/13 09:33:48;;;;;;;42.70;22.77;;;3.90;99.90;;;;;;5072006;28;20494;-69
2023/02/13 09:36:19;;;;;;;43.20;23.30;;;3.80;99.90;;;;;;5054492;28;20373;-69
2023/02/13 09:38:50;;;;;;;43.70;23.35;;;4.00;99.90;;;;;;5039510;28;20127;-69
2023/02/13 09:41:20;;;;;;;39.83;21.95;;;4.10;99.90;;;;;;5045955;28;20148;-69
2023/02/13 09:43:53;;;;;;;43.30;22.90;;;4.30;99.90;;;;;;5052335;28;20475;-71
2023/02/13 09:46:40;;;;;;;43.10;22.85;;;4.40;99.90;;;;;;5049660;28;20048;-70
2023/02/13 09:49:14;;;;;;;39.97;22.40;;;4.40;99.90;;;;;;5031113;28;20132;-70
2023/02/13 09:51:44;;;;;;;47.42;23.98;;;4.40;99.90;;;;;;5031464;28;20081;-69
2023/02/13 09:54:17;;;;;;;40.72;22.92;;;4.40;99.90;;;;;;5044233;28;20041;-69
2023/02/13 09:56:59;;;;;;;41.55;22.85;;;4.30;99.90;;;;;;5050169;28;20041;-69
2023/02/13 09:59:55;;;;;;;40.90;21.77;;;4.40;99.90;;;;;;5051989;28;20045;-69
2023/02/13 10:02:40;;;;;;;40.90;21.30;;;4.50;99.90;;;;;;5040243;28;20072;-69
2023/02/13 10:05:26;;;;;;;42.40;22.67;;;4.70;99.90;;;;;;5047346;28;20049;-69
2023/02/13 10:08:26;;;;;;;35.35;20.83;;;4.80;99.90;;;;;;5035984;28;20049;-70
2023/02/13 10:11:26;;;;;;;38.20;21.90;;;5.10;99.90;;;;;;5038882;28;20042;-69
2023/02/13 10:14:17;;;;;;;41.67;21.08;;;5.30;99.90;;;;;;5036946;28;20059;-69
2023/02/13 10:16:52;;;;;;;34.72;19.63;;;5.40;99.90;;;;;;5052666;28;20522;-69
2023/02/13 10:19:36;;;;;;;36.00;20.42;;;5.50;99.90;;;;;;5050879;28;20441;-69
2023/02/13 10:22:14;;;;;;;31.23;18.15;;;5.50;99.90;;;;;;5014615;28;20115;-69
2023/02/13 10:24:55;;;;;;;34.78;20.60;;;5.80;99.90;;;;;;5032129;28;20550;-70
2023/02/13 10:27:27;;;;;;;36.28;19.73;;;5.80;99.90;;;;;;5031378;28;20432;-70
2023/02/13 10:30:05;;;;;;;30.98;18.58;;;6.00;99.90;;;;;;5037256;28;20045;-69
2023/02/13 10:32:47;;;;;;;38.28;20.15;;;6.00;99.90;;;;;;5031264;28;20052;-69
2023/02/13 10:35:30;;;;;;;33.03;18.10;;;6.10;99.90;;;;;;5030369;28;20041;-69
2023/02/13 10:37:58;;;;;;;32.65;18.98;;;6.30;99.90;;;;;;5032230;28;20060;-70
2023/02/13 10:40:34;;;;;;;39.72;20.02;;;6.50;99.90;;;;;;5049451;28;20053;-70
2023/02/13 10:43:11;;;;;;;35.08;19.58;;;6.60;99.90;;;;;;5033476;28;20041;-70
2023/02/13 10:45:56;;;;;;;33.17;19.60;;;6.80;99.90;;;;;;5030500;28;20049;-69
2023/02/13 10:48:42;;;;;;;30.20;18.38;;;6.90;99.90;;;;;;5029954;28;20424;-70
2023/02/13 10:51:27;;;;;;;34.03;18.70;;;6.90;99.90;;;;;;5030408;28;20065;-69
2023/02/13 10:54:08;;;;;;;27.88;18.33;;;7.10;99.90;;;;;;5031963;28;20048;-69
2023/02/13 10:56:51;;;;;;;31.05;18.08;;;7.10;99.90;;;;;;5030778;28;20049;-70
2023/02/13 10:59:51;;;;;;;32.90;18.30;;;7.30;99.90;;;;;;5054422;28;20133;-70
2023/02/13 11:02:27;;;;;;;29.25;17.63;;;7.40;99.90;;;;;;5029871;28;20109;-69
2023/02/13 11:05:06;;;;;;;31.23;19.00;;;7.70;99.90;;;;;;5031497;28;20061;-69
2023/02/13 11:07:34;;;;;;;25.85;17.48;;;7.70;99.90;;;;;;5045760;28;20490;-70
2023/02/13 11:10:12;;;;;;;27.20;17.33;;;7.90;99.90;;;;;;5030588;28;20037;-70
2023/02/13 11:12:39;;;;;;;29.75;18.48;;;8.00;99.90;;;;;;5047461;28;20463;-69
2023/02/13 11:15:22;;;;;;;28.38;18.77;;;8.40;99.90;;;;;;5047610;28;20503;-69
2023/02/13 11:17:52;;;;;;;29.92;19.10;;;8.60;99.90;;;;;;5046436;28;20087;-69
2023/02/13 11:20:33;;;;;;;32.08;19.92;;;8.70;99.90;;;;;;5043124;28;20044;-69
2023/02/13 11:23:29;;;;;;;33.70;19.80;;;8.80;99.90;;;;;;5062656;28;20430;-69
2023/02/13 11:26:01;;;;;;;30.48;18.00;;;9.10;99.90;;;;;;5037156;28;20548;-70
2023/02/13 11:28:31;;;;;;;32.35;19.73;;;9.40;99.90;;;;;;5049827;28;20048;-70
2023/02/13 11:31:20;;;;;;;32.35;20.30;;;9.70;99.90;;;;;;5046294;28;20103;-70
2023/02/13 11:33:47;;;;;;;29.13;18.80;;;10.10;99.90;;;;;;5030190;28;20492;-69
2023/02/13 11:36:24;;;;;;;28.65;17.83;;;10.40;99.90;;;;;;5030030;28;20041;-70
2023/02/13 11:39:18;;;;;;;30.70;18.05;;;10.70;99.90;;;;;;5044541;28;20053;-69
2023/02/13 11:41:49;;;;;;;32.20;18.10;;;10.80;99.90;;;;;;5050005;28;20210;-70
2023/02/13 11:44:31;;;;;;;33.38;18.60;;;10.90;99.90;;;;;;5048930;28;20186;-69
2023/02/13 11:47:01;;;;;;;26.65;18.58;;;11.30;99.90;;;;;;5041732;28;20160;-70
2023/02/13 11:49:45;;;;;;;26.88;16.95;;;11.60;99.90;;;;;;5059090;28;20048;-70
2023/02/13 11:52:28;;;;;;;25.98;17.60;;;11.80;99.90;;;;;;5033737;28;20059;-70
2023/02/13 11:55:24;;;;;;;25.58;17.27;;;12.00;99.90;;;;;;5034405;28;20037;-70
2023/02/13 11:58:19;;;;;;;26.95;17.23;;;12.40;99.90;;;;;;5030973;28;20099;-70
2023/02/13 12:00:46;;;;;;;29.05;18.50;;;12.50;99.90;;;;;;5029998;28;20033;-70
2023/02/13 12:03:20;;;;;;;27.25;17.48;;;12.60;99.90;;;;;;5030420;28;20052;-71
2023/02/13 12:06:11;;;;;;;27.88;17.83;;;12.50;99.90;;;;;;5041018;28;20460;-70
2023/02/13 12:08:45;;;;;;;28.55;17.52;;;12.90;99.90;;;;;;5048804;28;20033;-70
2023/02/13 12:11:26;;;;;;;26.90;17.15;;;13.20;99.90;;;;;;5050164;28;20038;-70
2023/02/13 12:13:54;;;;;;;26.08;17.08;;;13.50;99.90;;;;;;5036639;28;20056;-69
2023/02/13 12:16:22;;;;;;;21.67;16.73;;;13.60;99.90;;;;;;5043436;28;20385;-68
2023/02/13 12:18:54;;;;;;;26.05;15.90;;;13.90;99.90;;;;;;5044812;28;20044;-68
2023/02/13 12:21:30;;;;;;;29.55;17.25;;;14.00;99.90;;;;;;5040797;28;20496;-70
2023/02/13 12:24:28;;;;;;;23.85;15.80;;;13.90;99.90;;;;;;5046286;28;20087;-70
2023/02/13 12:27:14;;;;;;;21.13;14.75;;;14.20;99.90;;;;;;5048913;28;20052;-71
2023/02/13 12:30:13;;;;;;;19.20;14.20;;;14.60;99.90;;;;;;5065825;28;20068;-71
2023/02/13 12:33:16;;;;;;;19.02;12.52;;;14.80;99.90;;;;;;5032099;28;20072;-71
2023/02/13 12:36:15;;;;;;;18.13;12.80;;;15.30;99.90;;;;;;4981748;28;20085;-70
2023/02/13 12:39:06;;;;;;;18.42;13.07;;;15.90;99.90;;;;;;4970374;28;20054;-70
2023/02/13 12:41:41;;;;;;;18.02;12.25;;;16.40;99.90;;;;;;4987943;28;20128;-71
2023/02/13 12:44:41;;;;;;;18.13;12.82;;;17.30;99.90;;;;;;4987756;28;20046;-70
2023/02/13 12:47:11;;;;;;;17.55;12.73;;;18.20;99.90;;;;;;4969862;28;20055;-70
2023/02/13 12:50:12;;;;;;;16.20;12.85;;;18.60;99.90;;;;;;4990000;28;20042;-70
2023/02/13 12:52:58;;;;;;;13.38;11.70;;;18.70;99.90;;;;;;5006098;28;20046;-70
2023/02/13 12:55:46;;;;;;;14.05;11.30;;;19.70;99.90;;;;;;4987752;28;20042;-71
2023/02/13 12:58:31;;;;;;;14.70;12.20;;;20.00;99.90;;;;;;4970544;28;20146;-69
2023/02/13 13:01:05;;;;;;;15.63;12.77;;;20.60;99.90;;;;;;4980481;28;20489;-70
2023/02/13 13:03:33;;;;;;;14.98;12.57;;;20.80;99.90;;;;;;4979572;28;20130;-70
2023/02/13 13:06:23;;;;;;;15.13;11.90;;;21.20;99.40;;;;;;4977242;28;20049;-71
2023/02/13 13:08:53;;;;;;;17.95;13.32;;;22.30;98.10;;;;;;4984994;28;20146;-72
2023/02/13 13:11:33;;;;;;;14.40;12.90;;;22.50;95.40;;;;;;4960906;28;20049;-70
2023/02/13 13:14:54;;;;;;;14.48;12.98;;;22.20;93.80;;;;;;5052644;28;20071;-72
2023/02/13 13:17:44;;;;;;;18.25;13.23;;;21.90;94.10;;;;;;4991202;28;20050;-71
2023/02/13 13:20:37;;;;;;;14.35;12.35;;;22.00;93.90;;;;;;4991601;28;20101;-72
2023/02/13 13:23:04;;;;;;;13.77;12.27;;;22.80;92.90;;;;;;4991015;28;20054;-71
2023/02/13 13:26:04;;;;;;;14.57;13.05;;;23.90;90.40;;;;;;4991026;28;20543;-71
2023/02/13 13:28:38;;;;;;;13.50;12.05;;;23.70;90.00;;;;;;4975414;28;20507;-72
2023/02/13 13:31:06;;;;;;;15.32;12.73;;;24.30;87.20;;;;;;4989735;28;20390;-73
2023/02/13 13:33:38;;;;;;;12.27;10.98;;;24.30;85.80;;;;;;4976500;28;20150;-71
2023/02/13 13:36:24;;;;;;;;;;;24.10;83.80;;;;;;4984114;28;20058;-71
2023/02/13 13:39:01;;;;;;;12.48;10.88;;;24.00;84.40;;;;;;4982517;28;20364;-71
2023/02/13 13:41:37;;;;;;;11.88;10.68;;;24.50;82.90;;;;;;4971978;28;20053;-71
2023/02/13 13:44:25;;;;;;;16.15;11.88;;;25.10;81.60;;;;;;4990795;28;20529;-71
2023/02/13 13:46:58;;;;;;;12.10;10.90;;;24.90;80.40;;;;;;4990392;28;20149;-70
2023/02/13 13:50:09;;;;;;;12.18;10.93;;;25.10;80.00;;;;;;4983845;28;20448;-71
2023/02/13 13:52:36;;;;;;;12.77;11.45;;;25.40;78.00;;;;;;5022329;28;20076;-71
2023/02/13 13:55:05;;;;;;;13.40;11.77;;;25.70;76.50;;;;;;5014036;28;20057;-71
2023/02/13 13:57:33;;;;;;;12.77;10.55;;;25.20;77.10;;;;;;5029351;28;20149;-70